createdAt,value
2017-11-25T00:01:49.649Z,86.37
2017-11-25T00:04:18.783Z,86.25
2017-11-25T00:06:48.613Z,86.17
2017-11-25T00:09:16.945Z,86.11
2017-11-25T00:11:46.421Z,86.12
2017-11-25T00:14:16.093Z,86.18
2017-11-25T00:16:45.225Z,86.20
2017-11-25T00:19:14.313Z,86.22
2017-11-25T00:21:43.429Z,86.21
2017-11-25T00:24:12.551Z,86.20
2017-11-25T00:26:42.016Z,86.16
2017-11-25T00:29:10.369Z,86.14
2017-11-25T00:31:38.684Z,86.18
2017-11-25T00:34:07.036Z,86.13
2017-11-25T00:36:35.353Z,86.09
2017-11-25T00:39:03.709Z,86.06
2017-11-25T00:41:32.024Z,86.06
2017-11-25T00:44:00.349Z,86.18
2017-11-25T00:46:28.718Z,86.18
2017-11-25T00:48:57.028Z,86.17
2017-11-25T00:51:25.770Z,86.15
2017-11-25T00:53:54.076Z,86.03
2017-11-25T00:56:22.420Z,85.93
2017-11-25T00:58:52.228Z,85.79
2017-11-25T01:01:20.961Z,85.72
2017-11-25T01:03:49.695Z,85.58
2017-11-25T01:06:18.824Z,85.53
2017-11-25T01:08:47.136Z,85.46
2017-11-25T01:11:15.856Z,85.44
2017-11-25T01:13:45.342Z,85.44
2017-11-25T01:16:13.657Z,85.46
2017-11-25T01:18:42.010Z,85.45
2017-11-25T01:21:11.474Z,85.51
2017-11-25T01:23:40.953Z,85.31
2017-11-25T01:26:10.892Z,85.24
2017-11-25T01:28:39.248Z,85.20
2017-11-25T01:31:07.565Z,85.28
2017-11-25T01:33:35.933Z,85.67
2017-11-25T01:36:04.242Z,86.19
2017-11-25T01:38:33.332Z,86.53
2017-11-25T01:41:03.192Z,86.81
2017-11-25T01:43:32.295Z,87.09
2017-11-25T01:46:01.409Z,87.35
2017-11-25T01:48:30.499Z,87.42
2017-11-25T01:50:58.840Z,87.50
2017-11-25T01:53:27.967Z,87.59
2017-11-25T01:55:57.420Z,87.66
2017-11-25T01:58:26.536Z,87.66
2017-11-25T02:00:55.651Z,87.64
2017-11-25T02:03:23.995Z,87.52
2017-11-25T02:05:53.075Z,87.35
2017-11-25T02:08:22.923Z,87.14
2017-11-25T02:10:51.621Z,87.10
2017-11-25T02:13:19.987Z,86.82
2017-11-25T02:15:48.751Z,86.75
2017-11-25T02:18:17.108Z,86.47
2017-11-25T02:20:46.231Z,86.30
2017-11-25T02:23:15.447Z,86.20
2017-11-25T02:25:43.787Z,86.08
2017-11-25T02:28:13.675Z,85.87
2017-11-25T02:30:43.503Z,85.91
2017-11-25T02:33:12.251Z,85.93
2017-11-25T02:35:40.572Z,85.80
2017-11-25T02:38:09.681Z,85.62
2017-11-25T02:40:38.016Z,85.53
2017-11-25T02:43:06.367Z,85.75
2017-11-25T02:45:34.712Z,85.94
2017-11-25T02:48:03.056Z,86.30
2017-11-25T02:50:31.402Z,86.67
2017-11-25T02:53:00.155Z,86.82
2017-11-25T02:55:28.875Z,86.86
2017-11-25T02:57:57.601Z,86.81
2017-11-25T03:00:26.707Z,86.73
2017-11-25T03:02:55.800Z,86.64
2017-11-25T03:05:24.162Z,86.70
2017-11-25T03:07:53.291Z,86.88
2017-11-25T03:10:22.439Z,87.12
2017-11-25T03:12:51.531Z,87.25
2017-11-25T03:15:19.882Z,87.27
2017-11-25T03:17:49.334Z,87.09
2017-11-25T03:20:18.827Z,86.84
2017-11-25T03:22:47.159Z,86.60
2017-11-25T03:25:15.519Z,86.33
2017-11-25T03:27:43.867Z,86.24
2017-11-25T03:30:12.636Z,86.24
2017-11-25T03:32:40.995Z,86.19
2017-11-25T03:35:09.322Z,86.21
2017-11-25T03:37:38.710Z,86.20
2017-11-25T03:40:07.063Z,86.24
2017-11-25T03:42:35.383Z,86.31
2017-11-25T03:45:04.123Z,86.28
2017-11-25T03:47:33.222Z,86.22
2017-11-25T03:50:01.574Z,86.02
2017-11-25T03:52:29.906Z,85.82
2017-11-25T03:54:59.407Z,85.75
2017-11-25T03:57:27.763Z,85.72
2017-11-25T03:59:56.103Z,86.07
2017-11-25T04:02:24.447Z,86.08
2017-11-25T04:04:53.546Z,85.97
2017-11-25T04:07:21.898Z,85.78
2017-11-25T04:09:50.230Z,85.58
2017-11-25T04:12:18.579Z,85.62
2017-11-25T04:14:46.899Z,85.64
2017-11-25T04:17:15.658Z,85.85
2017-11-25T04:19:44.742Z,86.00
2017-11-25T04:22:13.846Z,86.00
2017-11-25T04:24:42.950Z,86.09
2017-11-25T04:27:12.031Z,86.18
2017-11-25T04:29:41.139Z,85.95
2017-11-25T04:32:09.510Z,85.76
2017-11-25T04:34:38.591Z,85.60
2017-11-25T04:37:07.702Z,85.38
2017-11-25T04:39:36.433Z,85.14
2017-11-25T04:42:04.759Z,85.20
2017-11-25T04:44:33.114Z,85.76
2017-11-25T04:47:02.791Z,86.10
2017-11-25T04:49:31.543Z,86.19
2017-11-25T04:52:00.299Z,86.21
2017-11-25T04:54:28.670Z,86.19
2017-11-25T04:56:57.023Z,86.28
2017-11-25T04:59:26.477Z,86.51
2017-11-25T05:01:55.591Z,86.62
2017-11-25T05:04:23.914Z,86.67
2017-11-25T05:06:53.023Z,86.72
2017-11-25T05:09:21.369Z,86.74
2017-11-25T05:11:49.722Z,86.75
2017-11-25T05:14:19.594Z,86.56
2017-11-25T05:16:47.917Z,86.21
2017-11-25T05:19:16.303Z,85.92
2017-11-25T05:21:45.391Z,85.91
2017-11-25T05:24:13.705Z,86.00
2017-11-25T05:26:42.058Z,86.07
2017-11-25T05:29:10.421Z,85.59
2017-11-25T05:31:38.766Z,85.62
2017-11-25T05:34:07.104Z,85.54
2017-11-25T05:36:35.437Z,86.15
2017-11-25T05:39:03.779Z,85.21
2017-11-25T05:41:32.130Z,85.49
2017-11-25T05:44:00.510Z,84.90
2017-11-25T05:46:28.828Z,84.34
2017-11-25T05:48:57.182Z,83.61
2017-11-25T05:51:25.496Z,83.24
2017-11-25T05:53:54.630Z,82.39
2017-11-25T05:56:23.358Z,81.65
2017-11-25T05:58:51.688Z,82.26
2017-11-25T06:01:20.457Z,83.38
2017-11-25T06:03:49.181Z,83.72
2017-11-25T06:06:17.909Z,83.87
2017-11-25T06:08:46.989Z,84.32
2017-11-25T06:11:16.122Z,84.97
2017-11-25T06:13:44.457Z,85.03
2017-11-25T06:16:12.818Z,85.19
2017-11-25T06:18:41.546Z,85.44
2017-11-25T06:21:10.645Z,85.61
2017-11-25T06:23:39.409Z,86.29
2017-11-25T06:26:08.140Z,86.62
2017-11-25T06:28:36.522Z,86.67
2017-11-25T06:31:04.862Z,86.55
2017-11-25T06:33:34.578Z,86.19
2017-11-25T06:36:03.690Z,86.21
2017-11-25T06:38:32.131Z,86.18
2017-11-25T06:41:00.752Z,86.19
2017-11-25T06:43:29.077Z,86.55
2017-11-25T06:45:57.484Z,86.98
2017-11-25T06:48:25.805Z,86.91
2017-11-25T06:50:54.171Z,86.81
2017-11-25T06:53:22.549Z,86.64
2017-11-25T06:55:50.994Z,86.49
2017-11-25T06:58:20.093Z,86.73
2017-11-25T07:00:49.223Z,87.10
2017-11-25T07:03:17.569Z,87.09
2017-11-25T07:05:46.694Z,87.00
2017-11-25T07:08:15.059Z,87.03
2017-11-25T07:10:43.381Z,87.33
2017-11-25T07:13:11.765Z,87.33
2017-11-25T07:15:40.122Z,87.23
2017-11-25T07:18:08.445Z,87.42
2017-11-25T07:20:36.805Z,87.53
2017-11-25T07:23:05.177Z,87.48
2017-11-25T07:25:34.285Z,87.48
2017-11-25T07:28:02.637Z,87.61
2017-11-25T07:30:30.973Z,87.59
2017-11-25T07:33:00.086Z,87.68
2017-11-25T07:35:29.569Z,87.76
2017-11-25T07:38:01.136Z,87.65
2017-11-25T07:40:29.510Z,87.50
2017-11-25T07:42:57.837Z,87.36
2017-11-25T07:45:26.203Z,87.17
2017-11-25T07:47:54.541Z,86.99
2017-11-25T07:50:22.891Z,87.00
2017-11-25T07:52:51.616Z,86.90
2017-11-25T07:55:19.950Z,86.69
2017-11-25T07:57:48.280Z,86.85
2017-11-25T08:00:16.624Z,87.03
2017-11-25T08:02:44.969Z,86.92
2017-11-25T08:05:13.304Z,86.63
2017-11-25T08:07:43.678Z,86.32
2017-11-25T08:10:13.517Z,86.14
2017-11-25T08:12:43.410Z,86.16
2017-11-25T08:15:11.764Z,86.09
2017-11-25T08:17:40.871Z,86.14
2017-11-25T08:20:09.221Z,86.21
2017-11-25T08:22:38.905Z,86.55
2017-11-25T08:25:08.605Z,86.77
2017-11-25T08:27:38.290Z,87.25
2017-11-25T08:30:07.449Z,87.86
2017-11-25T08:32:37.153Z,87.92
2017-11-25T08:35:05.853Z,87.93
2017-11-25T08:37:34.216Z,87.98
2017-11-25T08:40:02.569Z,88.05
2017-11-25T08:42:31.280Z,88.09
2017-11-25T08:45:00.431Z,88.07
2017-11-25T08:47:29.520Z,88.13
2017-11-25T08:49:57.873Z,88.13
2017-11-25T08:52:27.733Z,88.09
2017-11-25T08:54:56.047Z,88.08
2017-11-25T08:57:24.799Z,88.05
2017-11-25T08:59:53.513Z,87.97
2017-11-25T09:02:21.958Z,87.92
2017-11-25T09:04:50.681Z,87.85
2017-11-25T09:07:19.007Z,87.87
2017-11-25T09:09:48.487Z,87.94
2017-11-25T09:12:17.210Z,87.94
2017-11-25T09:14:46.337Z,87.79
2017-11-25T09:17:15.041Z,87.74
2017-11-25T09:19:44.306Z,87.68
2017-11-25T09:22:12.632Z,87.75
2017-11-25T09:24:40.977Z,87.73
2017-11-25T09:27:09.296Z,87.72
2017-11-25T09:29:39.162Z,87.70
2017-11-25T09:32:08.991Z,87.64
2017-11-25T09:34:37.343Z,87.60
2017-11-25T09:37:05.702Z,87.46
2017-11-25T09:39:35.552Z,87.32
2017-11-25T09:42:03.945Z,87.16
2017-11-25T09:44:32.268Z,87.13
2017-11-25T09:47:01.403Z,87.00
2017-11-25T09:49:31.260Z,86.91
2017-11-25T09:52:00.744Z,86.76
2017-11-25T09:54:29.075Z,86.72
2017-11-25T09:56:57.429Z,86.70
2017-11-25T09:59:26.528Z,86.72
2017-11-25T10:01:55.657Z,86.72
2017-11-25T10:04:25.348Z,86.67
2017-11-25T10:06:53.719Z,86.63
2017-11-25T10:09:22.800Z,86.54
2017-11-25T10:11:51.549Z,86.45
2017-11-25T10:14:19.864Z,86.40
2017-11-25T10:16:48.202Z,86.48
2017-11-25T10:19:16.921Z,86.47
2017-11-25T10:21:48.099Z,86.52
2017-11-25T10:24:17.780Z,86.49
2017-11-25T10:26:47.632Z,86.44
2017-11-25T10:29:15.956Z,86.48
2017-11-25T10:31:45.063Z,86.46
2017-11-25T10:34:14.184Z,86.34
2017-11-25T10:36:43.880Z,86.01
2017-11-25T10:39:12.982Z,86.03
2017-11-25T10:41:41.332Z,86.16
2017-11-25T10:44:10.683Z,86.48
2017-11-25T10:46:39.807Z,86.55
2017-11-25T10:49:08.157Z,86.89
2017-11-25T10:51:36.555Z,86.92
2017-11-25T10:54:05.643Z,86.86
2017-11-25T10:56:34.791Z,86.96
2017-11-25T10:59:03.911Z,86.77
2017-11-25T11:01:33.048Z,86.76
2017-11-25T11:04:02.145Z,86.71
2017-11-25T11:06:30.468Z,86.47
2017-11-25T11:08:58.831Z,86.07
2017-11-25T11:11:27.147Z,86.14
2017-11-25T11:13:55.868Z,86.04
2017-11-25T11:16:24.203Z,85.86
2017-11-25T11:18:52.612Z,85.51
2017-11-25T11:21:21.381Z,85.18
2017-11-25T11:23:50.471Z,84.94
2017-11-25T11:26:18.836Z,84.71
2017-11-25T11:28:47.171Z,84.54
2017-11-25T11:31:15.885Z,84.25
2017-11-25T11:33:44.243Z,83.91
2017-11-25T11:36:14.094Z,83.64
2017-11-25T11:38:43.334Z,83.65
2017-11-25T11:41:12.520Z,83.86
2017-11-25T11:43:40.908Z,84.57
2017-11-25T11:46:09.231Z,84.69
2017-11-25T11:48:37.571Z,84.61
2017-11-25T11:51:05.919Z,84.58
2017-11-25T11:53:35.420Z,84.28
2017-11-25T11:56:04.140Z,84.15
2017-11-25T11:58:32.515Z,84.04
2017-11-25T12:01:00.915Z,83.99
2017-11-25T12:03:29.680Z,83.90
2017-11-25T12:05:58.785Z,83.42
2017-11-25T12:08:27.926Z,82.85
2017-11-25T12:10:56.251Z,82.61
2017-11-25T12:13:25.374Z,82.69
2017-11-25T12:15:53.960Z,83.34
2017-11-25T12:18:23.687Z,83.60
2017-11-25T12:20:53.175Z,83.75
2017-11-25T12:23:21.938Z,83.13
2017-11-25T12:25:50.327Z,82.71
2017-11-25T12:28:19.464Z,82.94
2017-11-25T12:30:47.795Z,83.45
2017-11-25T12:33:16.535Z,83.74
2017-11-25T12:35:44.919Z,84.42
2017-11-25T12:38:14.055Z,84.75
2017-11-25T12:40:43.207Z,84.86
2017-11-25T12:43:12.615Z,85.22
2017-11-25T12:45:41.403Z,85.69
2017-11-25T12:48:10.511Z,85.60
2017-11-25T12:50:39.290Z,85.86
2017-11-25T12:53:08.382Z,86.07
2017-11-25T12:55:38.162Z,86.23
2017-11-25T12:58:07.846Z,86.27
2017-11-25T13:00:36.590Z,86.13
2017-11-25T13:03:05.710Z,85.99
2017-11-25T13:05:34.434Z,85.77
2017-11-25T13:08:03.179Z,85.12
2017-11-25T13:10:32.862Z,84.97
2017-11-25T13:13:01.982Z,84.87
2017-11-25T13:15:30.354Z,84.87
2017-11-25T13:17:59.462Z,84.80
2017-11-25T13:20:28.202Z,84.78
2017-11-25T13:22:57.302Z,84.84
2017-11-25T13:25:25.635Z,84.86
2017-11-25T13:27:54.397Z,84.95
2017-11-25T13:30:24.211Z,84.72
2017-11-25T13:32:52.579Z,82.77
2017-11-25T13:35:20.897Z,82.42
2017-11-25T13:37:49.263Z,82.54
2017-11-25T13:40:18.595Z,82.78
2017-11-25T13:42:46.937Z,83.34
2017-11-25T13:45:15.264Z,83.61
2017-11-25T13:47:43.606Z,83.73
2017-11-25T13:50:13.445Z,83.95
2017-11-25T13:52:42.552Z,83.91
2017-11-25T13:55:11.657Z,83.78
2017-11-25T13:57:40.739Z,83.97
2017-11-25T14:00:09.867Z,84.11
2017-11-25T14:02:39.689Z,84.23
2017-11-25T14:05:08.813Z,84.47
2017-11-25T14:07:37.174Z,83.75
2017-11-25T14:10:05.926Z,83.65
2017-11-25T14:12:35.603Z,83.52
2017-11-25T14:15:03.932Z,83.62
2017-11-25T14:17:32.274Z,83.92
2017-11-25T14:20:00.606Z,83.96
2017-11-25T14:22:31.292Z,83.73
2017-11-25T14:24:59.616Z,83.55
2017-11-25T14:27:29.125Z,83.58
2017-11-25T14:29:58.218Z,83.85
2017-11-25T14:32:27.357Z,83.75
2017-11-25T14:34:55.743Z,83.91
2017-11-25T14:37:24.464Z,84.23
2017-11-25T14:39:54.841Z,84.52
2017-11-25T14:42:23.200Z,84.75
2017-11-25T14:44:51.566Z,84.62
2017-11-25T14:47:21.597Z,84.46
2017-11-25T14:49:50.013Z,84.43
2017-11-25T14:52:19.122Z,84.22
2017-11-25T14:54:48.614Z,84.09
2017-11-25T14:57:17.321Z,84.27
2017-11-25T14:59:46.165Z,84.40
2017-11-25T15:02:15.287Z,84.47
2017-11-25T15:04:45.175Z,84.35
2017-11-25T15:07:13.530Z,84.59
2017-11-25T15:09:42.278Z,84.92
2017-11-25T15:12:10.642Z,84.86
2017-11-25T15:14:39.020Z,84.88
2017-11-25T15:17:08.480Z,84.98
2017-11-25T15:19:38.017Z,84.94
2017-11-25T15:22:06.414Z,84.72
2017-11-25T15:24:34.749Z,84.94
2017-11-25T15:27:03.501Z,85.00
2017-11-25T15:29:31.837Z,85.16
2017-11-25T15:32:00.207Z,84.83
2017-11-25T15:34:28.958Z,84.89
2017-11-25T15:36:58.084Z,84.91
2017-11-25T15:39:26.431Z,84.91
2017-11-25T15:41:55.630Z,84.95
2017-11-25T15:44:25.111Z,84.94
2017-11-25T15:46:53.457Z,84.90
2017-11-25T15:49:22.203Z,84.84
2017-11-25T15:51:50.550Z,85.15
2017-11-25T15:54:18.945Z,85.17
2017-11-25T15:56:48.678Z,84.96
2017-11-25T15:59:17.848Z,84.90
2017-11-25T16:01:46.568Z,84.82
2017-11-25T16:04:14.922Z,84.32
2017-11-25T16:06:44.642Z,83.98
2017-11-25T16:09:16.321Z,83.99
2017-11-25T16:11:44.788Z,83.71
2017-11-25T16:14:14.647Z,83.41
2017-11-25T16:16:43.024Z,83.26
2017-11-25T16:19:11.452Z,82.80
2017-11-25T16:21:42.437Z,82.77
2017-11-25T16:24:10.777Z,82.91
2017-11-25T16:26:39.164Z,83.36
2017-11-25T16:29:07.529Z,83.58
2017-11-25T16:31:37.546Z,83.72
2017-11-25T16:34:06.768Z,83.68
2017-11-25T16:36:36.249Z,83.75
2017-11-25T16:39:05.377Z,83.67
2017-11-25T16:41:34.465Z,83.65
2017-11-25T16:44:02.789Z,83.75
2017-11-25T16:46:32.277Z,83.96
2017-11-25T16:49:00.641Z,84.24
2017-11-25T16:51:29.733Z,84.41
2017-11-25T16:53:58.054Z,84.19
2017-11-25T16:56:27.180Z,84.27
2017-11-25T16:58:55.903Z,84.49
2017-11-25T17:01:25.404Z,84.10
2017-11-25T17:03:55.087Z,84.39
2017-11-25T17:06:23.460Z,84.29
2017-11-25T17:08:51.785Z,84.05
2017-11-25T17:11:20.143Z,84.15
2017-11-25T17:13:49.233Z,83.76
2017-11-25T17:16:18.357Z,83.89
2017-11-25T17:18:47.445Z,84.09
2017-11-25T17:21:16.759Z,84.11
2017-11-25T17:23:45.896Z,84.05
2017-11-25T17:26:15.570Z,83.90
2017-11-25T17:28:45.424Z,83.94
2017-11-25T17:31:14.146Z,83.68
2017-11-25T17:33:42.504Z,83.32
2017-11-25T17:36:10.913Z,82.76
2017-11-25T17:38:40.410Z,82.63
2017-11-25T17:41:08.772Z,82.47
2017-11-25T17:43:37.155Z,82.74
2017-11-25T17:46:05.544Z,82.98
2017-11-25T17:48:33.940Z,83.13
2017-11-25T17:51:03.072Z,83.08
2017-11-25T17:53:31.429Z,83.12
2017-11-25T17:56:01.204Z,83.44
2017-11-25T17:58:29.556Z,83.60
2017-11-25T18:00:58.639Z,83.67
2017-11-25T18:03:26.976Z,83.34
2017-11-25T18:05:56.107Z,83.10
2017-11-25T18:08:24.860Z,82.98
2017-11-25T18:10:53.990Z,82.83
2017-11-25T18:13:23.075Z,82.85
2017-11-25T18:15:51.425Z,82.52
2017-11-25T18:18:19.754Z,82.44
2017-11-25T18:20:48.112Z,82.04
2017-11-25T18:23:16.444Z,82.30
2017-11-25T18:25:45.552Z,82.66
2017-11-25T18:28:13.884Z,82.33
2017-11-25T18:30:42.258Z,82.02
2017-11-25T18:33:10.598Z,82.02
2017-11-25T18:35:39.740Z,82.05
2017-11-25T18:38:09.527Z,82.35
2017-11-25T18:40:38.064Z,82.38
2017-11-25T18:43:08.819Z,82.89
2017-11-25T18:45:37.151Z,83.05
2017-11-25T18:48:05.893Z,83.08
2017-11-25T18:50:34.343Z,83.00
2017-11-25T18:53:03.478Z,82.98
2017-11-25T18:55:31.800Z,82.79
2017-11-25T18:58:02.471Z,82.81
2017-11-25T19:00:31.303Z,83.08
2017-11-25T19:03:00.400Z,82.85
2017-11-25T19:05:28.768Z,82.98
2017-11-25T19:07:57.137Z,83.13
2017-11-25T19:10:25.515Z,83.02
2017-11-25T19:12:53.870Z,83.33
2017-11-25T19:15:22.991Z,83.52
2017-11-25T19:17:52.702Z,83.67
2017-11-25T19:20:21.892Z,83.89
2017-11-25T19:22:51.019Z,83.15
2017-11-25T19:25:20.241Z,83.09
2017-11-25T19:27:49.735Z,82.57
2017-11-25T19:30:18.125Z,82.41
2017-11-25T19:32:47.223Z,82.54
2017-11-25T19:35:16.735Z,82.75
2017-11-25T19:37:45.824Z,82.67
2017-11-25T19:40:15.011Z,82.80
2017-11-25T19:42:44.159Z,82.97
2017-11-25T19:45:12.524Z,82.88
2017-11-25T19:47:41.271Z,83.15
2017-11-25T19:50:10.484Z,83.41
2017-11-25T19:52:41.075Z,83.37
2017-11-25T19:55:09.499Z,83.36
2017-11-25T19:57:38.227Z,83.56
2017-11-25T20:00:07.464Z,83.82
2017-11-25T20:02:37.886Z,84.23
2017-11-25T20:05:06.251Z,84.14
2017-11-25T20:07:35.374Z,83.78
2017-11-25T20:10:04.507Z,84.24
2017-11-25T20:12:33.275Z,84.38
2017-11-25T20:15:02.397Z,84.49
2017-11-25T20:17:31.669Z,84.54
2017-11-25T20:20:01.795Z,84.57
2017-11-25T20:22:33.105Z,84.65
2017-11-25T20:25:03.054Z,84.67
2017-11-25T20:27:32.599Z,84.74
2017-11-25T20:30:03.688Z,84.85
2017-11-25T20:32:34.728Z,84.97
2017-11-25T20:35:07.430Z,84.96
2017-11-25T20:37:39.819Z,85.15
2017-11-25T20:40:09.303Z,85.09
2017-11-25T20:42:38.506Z,85.12
2017-11-25T20:45:18.792Z,85.22
2017-11-25T20:47:51.495Z,85.05
2017-11-25T20:50:40.114Z,84.58
2017-11-25T20:53:32.184Z,84.31
2017-11-25T20:56:03.542Z,84.00
2017-11-25T20:58:32.187Z,83.38
2017-11-25T21:01:06.389Z,83.37
2017-11-25T21:03:45.219Z,83.37
2017-11-25T21:09:20.107Z,82.72
2017-11-25T21:15:26.987Z,82.29
2017-11-25T21:18:02.623Z,82.50
2017-11-25T21:26:57.398Z,82.36
2017-11-25T21:32:26.863Z,82.06
2017-11-25T21:34:56.354Z,82.13
2017-11-25T22:32:35.306Z,83.00
2017-11-25T22:35:27.842Z,83.52
2017-11-25T22:41:21.074Z,83.96
2017-11-25T22:55:23.199Z,84.30
2017-11-25T22:57:52.465Z,84.00
2017-11-25T23:00:23.366Z,84.18
2017-11-25T23:02:51.839Z,84.56
2017-11-25T23:05:21.653Z,84.92
2017-11-25T23:07:51.430Z,85.36
2017-11-25T23:10:19.830Z,85.48
2017-11-25T23:12:49.384Z,85.75
2017-11-25T23:15:19.345Z,86.32
2017-11-25T23:17:48.546Z,86.69
2017-11-25T23:20:17.718Z,87.01
2017-11-25T23:22:47.493Z,87.04
2017-11-25T23:25:15.890Z,86.73
2017-11-25T23:27:45.602Z,86.69
2017-11-25T23:30:14.777Z,86.49
2017-11-25T23:32:43.545Z,86.27
2017-11-25T23:35:12.496Z,86.36
2017-11-25T23:37:42.293Z,86.29
2017-11-25T23:40:12.165Z,85.92
2017-11-25T23:42:40.758Z,86.09
2017-11-25T23:45:10.593Z,86.09
2017-11-25T23:47:39.015Z,86.71
2017-11-25T23:50:07.411Z,86.90
2017-11-25T23:52:36.177Z,86.91
2017-11-25T23:55:04.701Z,86.99
2017-11-25T23:57:33.582Z,87.14
